sensor_id;sensor_type;location;lat;lon;timestamp;P1;durP1;ratioP1;P2;durP2;ratioP2
57071;SDS011;42956;51.366;11.298;2022-07-06T00:01:24;3.35;;;1.80;;
57071;SDS011;42956;51.366;11.298;2022-07-06T00:03:52;3.65;;;1.98;;
57071;SDS011;42956;51.366;11.298;2022-07-06T00:06:21;5.95;;;2.30;;
57071;SDS011;42956;51.366;11.298;2022-07-06T00:08:49;6.05;;;2.15;;
57071;SDS011;42956;51.366;11.298;2022-07-06T00:11:17;4.45;;;2.05;;
57071;SDS011;42956;51.366;11.298;2022-07-06T00:13:46;3.70;;;2.03;;
57071;SDS011;42956;51.366;11.298;2022-07-06T00:16:15;2.33;;;1.30;;
57071;SDS011;42956;51.366;11.298;2022-07-06T00:18:42;4.63;;;1.20;;
57071;SDS011;42956;51.366;11.298;2022-07-06T00:21:10;3.22;;;1.38;;
57071;SDS011;42956;51.366;11.298;2022-07-06T00:23:38;3.85;;;1.30;;
57071;SDS011;42956;51.366;11.298;2022-07-06T00:26:06;2.03;;;1.40;;
57071;SDS011;42956;51.366;11.298;2022-07-06T00:28:35;2.85;;;1.27;;
57071;SDS011;42956;51.366;11.298;2022-07-06T00:31:05;3.85;;;1.17;;
57071;SDS011;42956;51.366;11.298;2022-07-06T00:33:33;1.63;;;1.00;;
57071;SDS011;42956;51.366;11.298;2022-07-06T00:36:01;2.33;;;1.33;;
57071;SDS011;42956;51.366;11.298;2022-07-06T00:38:30;1.95;;;1.08;;
57071;SDS011;42956;51.366;11.298;2022-07-06T00:40:57;5.78;;;1.23;;
57071;SDS011;42956;51.366;11.298;2022-07-06T00:43:25;5.00;;;1.10;;
57071;SDS011;42956;51.366;11.298;2022-07-06T00:45:53;4.72;;;1.00;;
57071;SDS011;42956;51.366;11.298;2022-07-06T00:48:22;2.08;;;1.10;;
57071;SDS011;42956;51.366;11.298;2022-07-06T00:50:50;3.10;;;1.45;;
57071;SDS011;42956;51.366;11.298;2022-07-06T00:53:18;1.50;;;1.10;;
57071;SDS011;42956;51.366;11.298;2022-07-06T00:55:46;1.08;;;0.73;;
57071;SDS011;42956;51.366;11.298;2022-07-06T00:58:14;2.60;;;1.10;;
57071;SDS011;42956;51.366;11.298;2022-07-06T01:00:42;2.58;;;0.93;;
57071;SDS011;42956;51.366;11.298;2022-07-06T01:03:11;3.78;;;1.20;;
57071;SDS011;42956;51.366;11.298;2022-07-06T01:05:40;4.00;;;1.10;;
57071;SDS011;42956;51.366;11.298;2022-07-06T01:08:09;3.22;;;1.10;;
57071;SDS011;42956;51.366;11.298;2022-07-06T01:10:36;4.43;;;0.82;;
57071;SDS011;42956;51.366;11.298;2022-07-06T01:13:04;4.97;;;1.13;;
57071;SDS011;42956;51.366;11.298;2022-07-06T01:15:32;1.15;;;1.00;;
57071;SDS011;42956;51.366;11.298;2022-07-06T01:18:00;3.45;;;1.73;;
57071;SDS011;42956;51.366;11.298;2022-07-06T01:20:29;5.85;;;1.35;;
57071;SDS011;42956;51.366;11.298;2022-07-06T01:22:58;4.20;;;1.00;;
57071;SDS011;42956;51.366;11.298;2022-07-06T01:25:26;4.97;;;1.23;;
57071;SDS011;42956;51.366;11.298;2022-07-06T01:27:54;3.45;;;1.27;;
57071;SDS011;42956;51.366;11.298;2022-07-06T01:30:22;3.03;;;1.10;;
57071;SDS011;42956;51.366;11.298;2022-07-06T01:32:50;7.03;;;1.40;;
57071;SDS011;42956;51.366;11.298;2022-07-06T01:35:18;2.45;;;1.10;;
57071;SDS011;42956;51.366;11.298;2022-07-06T01:37:48;4.72;;;1.13;;
57071;SDS011;42956;51.366;11.298;2022-07-06T01:40:15;2.10;;;0.95;;
57071;SDS011;42956;51.366;11.298;2022-07-06T01:42:43;4.00;;;1.08;;
57071;SDS011;42956;51.366;11.298;2022-07-06T01:45:11;4.85;;;1.23;;
57071;SDS011;42956;51.366;11.298;2022-07-06T01:47:39;3.45;;;1.50;;
57071;SDS011;42956;51.366;11.298;2022-07-06T01:50:07;3.60;;;1.20;;
57071;SDS011;42956;51.366;11.298;2022-07-06T01:52:35;3.40;;;1.33;;
57071;SDS011;42956;51.366;11.298;2022-07-06T01:55:05;4.75;;;1.25;;
57071;SDS011;42956;51.366;11.298;2022-07-06T01:57:33;6.25;;;1.40;;
57071;SDS011;42956;51.366;11.298;2022-07-06T02:00:01;4.32;;;1.20;;
57071;SDS011;42956;51.366;11.298;2022-07-06T02:02:29;6.45;;;1.10;;
57071;SDS011;42956;51.366;11.298;2022-07-06T02:04:57;4.20;;;1.00;;
57071;SDS011;42956;51.366;11.298;2022-07-06T02:07:25;4.93;;;1.00;;
57071;SDS011;42956;51.366;11.298;2022-07-06T02:09:52;5.85;;;1.20;;
57071;SDS011;42956;51.366;11.298;2022-07-06T02:12:22;2.63;;;1.20;;
57071;SDS011;42956;51.366;11.298;2022-07-06T02:14:49;1.73;;;1.00;;
57071;SDS011;42956;51.366;11.298;2022-07-06T02:17:17;1.75;;;1.33;;
57071;SDS011;42956;51.366;11.298;2022-07-06T02:19:45;4.07;;;1.45;;
57071;SDS011;42956;51.366;11.298;2022-07-06T02:22:13;5.25;;;1.38;;
57071;SDS011;42956;51.366;11.298;2022-07-06T02:24:41;1.95;;;1.00;;
57071;SDS011;42956;51.366;11.298;2022-07-06T02:27:09;3.47;;;1.27;;
57071;SDS011;42956;51.366;11.298;2022-07-06T02:29:38;4.95;;;1.20;;
57071;SDS011;42956;51.366;11.298;2022-07-06T02:32:06;6.95;;;1.15;;
57071;SDS011;42956;51.366;11.298;2022-07-06T02:34:34;2.75;;;1.08;;
57071;SDS011;42956;51.366;11.298;2022-07-06T02:37:02;1.20;;;1.10;;
57071;SDS011;42956;51.366;11.298;2022-07-06T02:39:30;3.20;;;1.30;;
57071;SDS011;42956;51.366;11.298;2022-07-06T02:41:58;2.63;;;1.00;;
57071;SDS011;42956;51.366;11.298;2022-07-06T02:44:26;6.80;;;1.30;;
57071;SDS011;42956;51.366;11.298;2022-07-06T02:46:55;1.33;;;1.13;;
57071;SDS011;42956;51.366;11.298;2022-07-06T02:49:23;4.72;;;1.00;;
57071;SDS011;42956;51.366;11.298;2022-07-06T02:51:51;8.95;;;1.52;;
57071;SDS011;42956;51.366;11.298;2022-07-06T02:54:19;4.93;;;1.20;;
57071;SDS011;42956;51.366;11.298;2022-07-06T02:56:46;1.23;;;0.88;;
57071;SDS011;42956;51.366;11.298;2022-07-06T02:59:19;3.63;;;1.40;;
57071;SDS011;42956;51.366;11.298;2022-07-06T03:01:47;2.55;;;1.50;;
57071;SDS011;42956;51.366;11.298;2022-07-06T03:04:16;9.57;;;1.70;;
57071;SDS011;42956;51.366;11.298;2022-07-06T03:06:44;7.55;;;1.55;;
57071;SDS011;42956;51.366;11.298;2022-07-06T03:09:12;1.95;;;1.20;;
57071;SDS011;42956;51.366;11.298;2022-07-06T03:11:40;2.50;;;1.65;;
57071;SDS011;42956;51.366;11.298;2022-07-06T03:14:08;3.78;;;1.38;;
57071;SDS011;42956;51.366;11.298;2022-07-06T03:16:36;3.97;;;1.38;;
57071;SDS011;42956;51.366;11.298;2022-07-06T03:19:03;1.98;;;1.13;;
57071;SDS011;42956;51.366;11.298;2022-07-06T03:21:33;4.13;;;1.08;;
57071;SDS011;42956;51.366;11.298;2022-07-06T03:24:01;3.03;;;1.23;;
57071;SDS011;42956;51.366;11.298;2022-07-06T03:26:29;2.33;;;1.02;;
57071;SDS011;42956;51.366;11.298;2022-07-06T03:28:56;4.20;;;1.17;;
57071;SDS011;42956;51.366;11.298;2022-07-06T03:31:24;8.38;;;1.60;;
57071;SDS011;42956;51.366;11.298;2022-07-06T03:33:52;4.57;;;1.50;;
57071;SDS011;42956;51.366;11.298;2022-07-06T03:36:20;5.07;;;1.42;;
57071;SDS011;42956;51.366;11.298;2022-07-06T03:38:49;3.60;;;1.50;;
57071;SDS011;42956;51.366;11.298;2022-07-06T03:41:17;8.20;;;1.58;;
57071;SDS011;42956;51.366;11.298;2022-07-06T03:43:47;3.88;;;1.20;;
57071;SDS011;42956;51.366;11.298;2022-07-06T03:46:15;1.30;;;1.00;;
57071;SDS011;42956;51.366;11.298;2022-07-06T03:48:43;5.80;;;1.10;;
57071;SDS011;42956;51.366;11.298;2022-07-06T03:51:11;2.67;;;1.27;;
57071;SDS011;42956;51.366;11.298;2022-07-06T03:53:39;4.57;;;1.20;;
57071;SDS011;42956;51.366;11.298;2022-07-06T03:56:11;3.47;;;1.50;;
57071;SDS011;42956;51.366;11.298;2022-07-06T03:59:00;4.90;;;1.20;;
57071;SDS011;42956;51.366;11.298;2022-07-06T04:01:28;3.53;;;1.17;;
57071;SDS011;42956;51.366;11.298;2022-07-06T04:03:56;2.40;;;1.27;;
57071;SDS011;42956;51.366;11.298;2022-07-06T04:06:25;5.00;;;1.48;;
57071;SDS011;42956;51.366;11.298;2022-07-06T04:08:52;4.25;;;1.33;;
57071;SDS011;42956;51.366;11.298;2022-07-06T04:11:22;3.53;;;1.48;;
57071;SDS011;42956;51.366;11.298;2022-07-06T04:13:49;4.40;;;0.90;;
57071;SDS011;42956;51.366;11.298;2022-07-06T04:16:17;9.05;;;1.73;;
57071;SDS011;42956;51.366;11.298;2022-07-06T04:18:45;6.00;;;1.05;;
57071;SDS011;42956;51.366;11.298;2022-07-06T04:21:13;4.38;;;1.35;;
57071;SDS011;42956;51.366;11.298;2022-07-06T04:23:41;2.50;;;1.30;;
57071;SDS011;42956;51.366;11.298;2022-07-06T04:26:09;2.20;;;1.38;;
57071;SDS011;42956;51.366;11.298;2022-07-06T04:28:41;5.60;;;1.10;;
57071;SDS011;42956;51.366;11.298;2022-07-06T04:31:08;2.75;;;1.40;;
57071;SDS011;42956;51.366;11.298;2022-07-06T04:33:36;4.05;;;1.42;;
57071;SDS011;42956;51.366;11.298;2022-07-06T04:36:04;6.47;;;1.35;;
57071;SDS011;42956;51.366;11.298;2022-07-06T04:38:32;7.55;;;1.38;;
57071;SDS011;42956;51.366;11.298;2022-07-06T04:41:02;4.63;;;1.20;;
57071;SDS011;42956;51.366;11.298;2022-07-06T04:43:30;4.03;;;1.33;;
57071;SDS011;42956;51.366;11.298;2022-07-06T04:45:59;8.52;;;1.63;;
57071;SDS011;42956;51.366;11.298;2022-07-06T04:48:28;2.60;;;1.23;;
57071;SDS011;42956;51.366;11.298;2022-07-06T04:50:56;5.05;;;1.40;;
57071;SDS011;42956;51.366;11.298;2022-07-06T04:53:24;3.05;;;1.20;;
57071;SDS011;42956;51.366;11.298;2022-07-06T04:55:52;4.25;;;1.20;;
57071;SDS011;42956;51.366;11.298;2022-07-06T04:58:19;3.35;;;1.55;;
57071;SDS011;42956;51.366;11.298;2022-07-06T05:00:48;2.30;;;1.20;;
57071;SDS011;42956;51.366;11.298;2022-07-06T05:03:17;6.95;;;1.60;;
57071;SDS011;42956;51.366;11.298;2022-07-06T05:05:45;6.50;;;1.73;;
57071;SDS011;42956;51.366;11.298;2022-07-06T05:08:13;7.28;;;1.38;;
57071;SDS011;42956;51.366;11.298;2022-07-06T05:10:41;5.00;;;1.25;;
57071;SDS011;42956;51.366;11.298;2022-07-06T05:13:09;6.00;;;1.50;;
57071;SDS011;42956;51.366;11.298;2022-07-06T05:15:37;13.32;;;2.03;;
57071;SDS011;42956;51.366;11.298;2022-07-06T05:18:05;4.70;;;2.38;;
57071;SDS011;42956;51.366;11.298;2022-07-06T05:20:34;4.55;;;1.38;;
57071;SDS011;42956;51.366;11.298;2022-07-06T05:23:02;3.70;;;1.58;;
57071;SDS011;42956;51.366;11.298;2022-07-06T05:25:30;3.25;;;2.17;;
57071;SDS011;42956;51.366;11.298;2022-07-06T05:27:59;5.10;;;1.48;;
57071;SDS011;42956;51.366;11.298;2022-07-06T05:30:27;7.18;;;1.77;;
57071;SDS011;42956;51.366;11.298;2022-07-06T05:32:55;5.43;;;1.70;;
57071;SDS011;42956;51.366;11.298;2022-07-06T05:35:23;4.75;;;1.40;;
57071;SDS011;42956;51.366;11.298;2022-07-06T05:38:12;3.90;;;1.50;;
57071;SDS011;42956;51.366;11.298;2022-07-06T05:40:39;4.10;;;1.58;;
57071;SDS011;42956;51.366;11.298;2022-07-06T05:43:07;5.68;;;1.80;;
57071;SDS011;42956;51.366;11.298;2022-07-06T05:45:36;5.47;;;2.53;;
57071;SDS011;42956;51.366;11.298;2022-07-06T05:48:04;6.05;;;1.80;;
57071;SDS011;42956;51.366;11.298;2022-07-06T05:50:58;5.03;;;1.48;;
57071;SDS011;42956;51.366;11.298;2022-07-06T05:53:27;6.97;;;1.58;;
57071;SDS011;42956;51.366;11.298;2022-07-06T05:55:55;4.70;;;1.83;;
57071;SDS011;42956;51.366;11.298;2022-07-06T05:58:23;5.70;;;1.55;;
57071;SDS011;42956;51.366;11.298;2022-07-06T06:00:53;3.75;;;1.40;;
57071;SDS011;42956;51.366;11.298;2022-07-06T06:03:20;2.88;;;1.35;;
57071;SDS011;42956;51.366;11.298;2022-07-06T06:05:49;3.85;;;1.25;;
57071;SDS011;42956;51.366;11.298;2022-07-06T06:08:16;3.45;;;1.35;;
57071;SDS011;42956;51.366;11.298;2022-07-06T06:10:45;3.53;;;1.40;;
57071;SDS011;42956;51.366;11.298;2022-07-06T06:13:13;2.78;;;1.20;;
57071;SDS011;42956;51.366;11.298;2022-07-06T06:15:41;8.75;;;1.65;;
57071;SDS011;42956;51.366;11.298;2022-07-06T06:18:09;5.13;;;1.38;;
57071;SDS011;42956;51.366;11.298;2022-07-06T06:20:37;1.83;;;0.90;;
57071;SDS011;42956;51.366;11.298;2022-07-06T06:23:05;3.97;;;1.13;;
57071;SDS011;42956;51.366;11.298;2022-07-06T06:25:34;1.45;;;1.08;;
57071;SDS011;42956;51.366;11.298;2022-07-06T06:28:04;3.28;;;1.48;;
57071;SDS011;42956;51.366;11.298;2022-07-06T06:30:32;6.18;;;1.67;;
57071;SDS011;42956;51.366;11.298;2022-07-06T06:33:05;4.78;;;1.73;;
57071;SDS011;42956;51.366;11.298;2022-07-06T06:35:33;2.28;;;1.20;;
57071;SDS011;42956;51.366;11.298;2022-07-06T06:38:00;4.20;;;1.17;;
57071;SDS011;42956;51.366;11.298;2022-07-06T06:40:28;4.07;;;1.42;;
57071;SDS011;42956;51.366;11.298;2022-07-06T06:42:56;5.68;;;1.33;;
57071;SDS011;42956;51.366;11.298;2022-07-06T06:45:25;2.65;;;1.17;;
57071;SDS011;42956;51.366;11.298;2022-07-06T06:47:53;5.40;;;1.17;;
57071;SDS011;42956;51.366;11.298;2022-07-06T06:50:21;1.58;;;1.33;;
57071;SDS011;42956;51.366;11.298;2022-07-06T06:52:50;3.70;;;1.10;;
57071;SDS011;42956;51.366;11.298;2022-07-06T06:55:18;2.22;;;1.27;;
57071;SDS011;42956;51.366;11.298;2022-07-06T06:57:46;2.53;;;1.15;;
57071;SDS011;42956;51.366;11.298;2022-07-06T07:00:14;3.63;;;1.48;;
57071;SDS011;42956;51.366;11.298;2022-07-06T07:02:44;7.20;;;1.70;;
57071;SDS011;42956;51.366;11.298;2022-07-06T07:05:12;7.22;;;1.35;;
57071;SDS011;42956;51.366;11.298;2022-07-06T07:07:40;3.63;;;1.85;;
57071;SDS011;42956;51.366;11.298;2022-07-06T07:10:08;7.25;;;1.40;;
57071;SDS011;42956;51.366;11.298;2022-07-06T07:12:41;7.22;;;1.27;;
57071;SDS011;42956;51.366;11.298;2022-07-06T07:15:09;2.47;;;1.23;;
57071;SDS011;42956;51.366;11.298;2022-07-06T07:17:38;2.45;;;1.30;;
57071;SDS011;42956;51.366;11.298;2022-07-06T07:20:08;4.82;;;1.45;;
57071;SDS011;42956;51.366;11.298;2022-07-06T07:22:36;4.45;;;1.58;;
57071;SDS011;42956;51.366;11.298;2022-07-06T07:25:05;5.57;;;1.55;;
57071;SDS011;42956;51.366;11.298;2022-07-06T07:27:33;5.00;;;1.42;;
57071;SDS011;42956;51.366;11.298;2022-07-06T07:30:01;4.13;;;1.17;;
57071;SDS011;42956;51.366;11.298;2022-07-06T07:32:29;4.63;;;1.20;;
57071;SDS011;42956;51.366;11.298;2022-07-06T07:34:56;8.50;;;2.28;;
57071;SDS011;42956;51.366;11.298;2022-07-06T07:37:26;5.55;;;1.70;;
57071;SDS011;42956;51.366;11.298;2022-07-06T07:39:54;5.47;;;1.20;;
57071;SDS011;42956;51.366;11.298;2022-07-06T07:42:21;5.30;;;1.63;;
57071;SDS011;42956;51.366;11.298;2022-07-06T07:44:49;3.15;;;2.05;;
57071;SDS011;42956;51.366;11.298;2022-07-06T07:47:17;5.70;;;1.27;;
57071;SDS011;42956;51.366;11.298;2022-07-06T07:49:45;5.45;;;1.40;;
57071;SDS011;42956;51.366;11.298;2022-07-06T07:52:13;3.60;;;1.55;;
57071;SDS011;42956;51.366;11.298;2022-07-06T07:54:43;5.10;;;2.55;;
57071;SDS011;42956;51.366;11.298;2022-07-06T07:57:16;9.38;;;1.42;;
57071;SDS011;42956;51.366;11.298;2022-07-06T07:59:44;6.50;;;1.88;;
57071;SDS011;42956;51.366;11.298;2022-07-06T08:02:12;5.75;;;2.20;;
57071;SDS011;42956;51.366;11.298;2022-07-06T08:04:40;6.70;;;1.65;;
57071;SDS011;42956;51.366;11.298;2022-07-06T08:07:08;4.55;;;1.65;;
57071;SDS011;42956;51.366;11.298;2022-07-06T08:09:36;4.00;;;1.95;;
57071;SDS011;42956;51.366;11.298;2022-07-06T08:12:06;5.30;;;1.70;;
57071;SDS011;42956;51.366;11.298;2022-07-06T08:14:34;3.55;;;1.20;;
57071;SDS011;42956;51.366;11.298;2022-07-06T08:17:04;2.95;;;0.90;;
57071;SDS011;42956;51.366;11.298;2022-07-06T08:19:32;3.05;;;1.20;;
57071;SDS011;42956;51.366;11.298;2022-07-06T08:21:59;7.60;;;1.50;;
57071;SDS011;42956;51.366;11.298;2022-07-06T08:24:29;3.75;;;0.95;;
57071;SDS011;42956;51.366;11.298;2022-07-06T08:26:57;2.60;;;1.00;;
57071;SDS011;42956;51.366;11.298;2022-07-06T08:29:27;3.90;;;1.25;;
57071;SDS011;42956;51.366;11.298;2022-07-06T08:31:55;2.53;;;1.17;;
57071;SDS011;42956;51.366;11.298;2022-07-06T08:34:31;6.35;;;1.35;;
57071;SDS011;42956;51.366;11.298;2022-07-06T08:37:00;3.95;;;1.23;;
57071;SDS011;42956;51.366;11.298;2022-07-06T08:39:27;3.00;;;1.35;;
57071;SDS011;42956;51.366;11.298;2022-07-06T08:41:56;3.33;;;1.58;;
57071;SDS011;42956;51.366;11.298;2022-07-06T08:44:24;6.70;;;1.25;;
57071;SDS011;42956;51.366;11.298;2022-07-06T08:46:53;3.17;;;1.13;;
57071;SDS011;42956;51.366;11.298;2022-07-06T08:49:22;5.18;;;1.60;;
57071;SDS011;42956;51.366;11.298;2022-07-06T08:51:50;2.15;;;0.80;;
57071;SDS011;42956;51.366;11.298;2022-07-06T08:54:18;5.35;;;1.27;;
57071;SDS011;42956;51.366;11.298;2022-07-06T08:56:46;3.15;;;1.10;;
57071;SDS011;42956;51.366;11.298;2022-07-06T08:59:15;1.00;;;0.70;;
57071;SDS011;42956;51.366;11.298;2022-07-06T09:01:44;4.22;;;1.20;;
57071;SDS011;42956;51.366;11.298;2022-07-06T09:04:15;1.65;;;0.95;;
57071;SDS011;42956;51.366;11.298;2022-07-06T09:06:45;3.13;;;0.80;;
57071;SDS011;42956;51.366;11.298;2022-07-06T09:09:16;2.15;;;0.88;;
57071;SDS011;42956;51.366;11.298;2022-07-06T09:11:46;1.13;;;0.70;;
57071;SDS011;42956;51.366;11.298;2022-07-06T09:14:14;2.53;;;0.85;;
57071;SDS011;42956;51.366;11.298;2022-07-06T09:16:42;3.33;;;1.02;;
57071;SDS011;42956;51.366;11.298;2022-07-06T09:19:10;2.65;;;1.27;;
57071;SDS011;42956;51.366;11.298;2022-07-06T09:21:40;1.95;;;1.13;;
57071;SDS011;42956;51.366;11.298;2022-07-06T09:24:11;3.55;;;1.20;;
57071;SDS011;42956;51.366;11.298;2022-07-06T09:26:39;3.30;;;0.90;;
57071;SDS011;42956;51.366;11.298;2022-07-06T09:29:07;2.90;;;1.00;;
57071;SDS011;42956;51.366;11.298;2022-07-06T09:31:36;8.38;;;1.23;;
57071;SDS011;42956;51.366;11.298;2022-07-06T09:34:05;3.30;;;1.20;;
57071;SDS011;42956;51.366;11.298;2022-07-06T09:36:36;5.38;;;1.20;;
57071;SDS011;42956;51.366;11.298;2022-07-06T09:39:18;2.92;;;1.15;;
57071;SDS011;42956;51.366;11.298;2022-07-06T09:41:47;1.92;;;1.13;;
57071;SDS011;42956;51.366;11.298;2022-07-06T09:44:18;2.47;;;0.82;;
57071;SDS011;42956;51.366;11.298;2022-07-06T09:46:46;2.05;;;0.98;;
57071;SDS011;42956;51.366;11.298;2022-07-06T09:49:16;2.92;;;0.77;;
57071;SDS011;42956;51.366;11.298;2022-07-06T09:51:44;9.60;;;1.20;;
57071;SDS011;42956;51.366;11.298;2022-07-06T09:54:15;1.55;;;0.68;;
57071;SDS011;42956;51.366;11.298;2022-07-06T09:56:45;3.85;;;0.60;;
57071;SDS011;42956;51.366;11.298;2022-07-06T09:59:17;1.48;;;0.80;;
57071;SDS011;42956;51.366;11.298;2022-07-06T10:01:45;3.13;;;0.90;;
57071;SDS011;42956;51.366;11.298;2022-07-06T10:04:13;1.33;;;0.65;;
57071;SDS011;42956;51.366;11.298;2022-07-06T10:06:42;4.78;;;0.77;;
57071;SDS011;42956;51.366;11.298;2022-07-06T10:09:10;1.63;;;0.70;;
57071;SDS011;42956;51.366;11.298;2022-07-06T10:11:39;2.08;;;0.70;;
57071;SDS011;42956;51.366;11.298;2022-07-06T10:14:09;2.25;;;0.88;;
57071;SDS011;42956;51.366;11.298;2022-07-06T10:16:38;2.45;;;0.80;;
57071;SDS011;42956;51.366;11.298;2022-07-06T10:19:06;1.77;;;0.60;;
57071;SDS011;42956;51.366;11.298;2022-07-06T10:21:35;2.85;;;0.75;;
57071;SDS011;42956;51.366;11.298;2022-07-06T10:24:03;1.65;;;0.80;;
57071;SDS011;42956;51.366;11.298;2022-07-06T10:26:31;0.60;;;0.50;;
57071;SDS011;42956;51.366;11.298;2022-07-06T10:28:59;1.73;;;0.80;;
57071;SDS011;42956;51.366;11.298;2022-07-06T10:31:29;0.95;;;0.80;;
57071;SDS011;42956;51.366;11.298;2022-07-06T10:33:59;2.00;;;0.65;;
57071;SDS011;42956;51.366;11.298;2022-07-06T10:36:27;3.83;;;1.00;;
57071;SDS011;42956;51.366;11.298;2022-07-06T10:38:55;1.20;;;0.70;;
57071;SDS011;42956;51.366;11.298;2022-07-06T10:41:30;1.20;;;0.70;;
57071;SDS011;42956;51.366;11.298;2022-07-06T10:43:57;3.63;;;1.10;;
57071;SDS011;42956;51.366;11.298;2022-07-06T10:46:27;1.38;;;0.70;;
57071;SDS011;42956;51.366;11.298;2022-07-06T10:48:57;0.70;;;0.63;;
57071;SDS011;42956;51.366;11.298;2022-07-06T10:51:26;1.75;;;0.63;;
57071;SDS011;42956;51.366;11.298;2022-07-06T10:53:55;3.63;;;0.80;;
57071;SDS011;42956;51.366;11.298;2022-07-06T10:56:31;0.90;;;0.47;;
57071;SDS011;42956;51.366;11.298;2022-07-06T10:59:08;0.93;;;0.60;;
57071;SDS011;42956;51.366;11.298;2022-07-06T11:01:37;1.60;;;0.90;;
57071;SDS011;42956;51.366;11.298;2022-07-06T11:04:14;4.35;;;1.85;;
57071;SDS011;42956;51.366;11.298;2022-07-06T11:06:43;3.50;;;1.17;;
57071;SDS011;42956;51.366;11.298;2022-07-06T11:09:13;5.68;;;0.60;;
57071;SDS011;42956;51.366;11.298;2022-07-06T11:11:42;1.92;;;0.52;;
57071;SDS011;42956;51.366;11.298;2022-07-06T11:14:12;1.00;;;0.63;;
57071;SDS011;42956;51.366;11.298;2022-07-06T11:16:59;1.48;;;0.68;;
57071;SDS011;42956;51.366;11.298;2022-07-06T11:19:29;3.47;;;0.82;;
57071;SDS011;42956;51.366;11.298;2022-07-06T11:21:58;3.22;;;0.57;;
57071;SDS011;42956;51.366;11.298;2022-07-06T11:24:33;2.47;;;0.93;;
57071;SDS011;42956;51.366;11.298;2022-07-06T11:27:01;5.05;;;0.70;;
57071;SDS011;42956;51.366;11.298;2022-07-06T11:29:29;4.70;;;0.70;;
57071;SDS011;42956;51.366;11.298;2022-07-06T11:31:58;2.40;;;1.02;;
57071;SDS011;42956;51.366;11.298;2022-07-06T11:34:28;2.50;;;0.60;;
57071;SDS011;42956;51.366;11.298;2022-07-06T11:36:58;1.35;;;0.60;;
57071;SDS011;42956;51.366;11.298;2022-07-06T11:39:26;4.10;;;0.75;;
57071;SDS011;42956;51.366;11.298;2022-07-06T11:41:55;2.88;;;0.70;;
57071;SDS011;42956;51.366;11.298;2022-07-06T11:44:25;2.72;;;0.68;;
57071;SDS011;42956;51.366;11.298;2022-07-06T11:46:53;2.58;;;0.73;;
57071;SDS011;42956;51.366;11.298;2022-07-06T11:49:23;5.00;;;0.90;;
57071;SDS011;42956;51.366;11.298;2022-07-06T11:51:51;0.90;;;0.43;;
57071;SDS011;42956;51.366;11.298;2022-07-06T11:54:21;5.80;;;0.85;;
57071;SDS011;42956;51.366;11.298;2022-07-06T11:56:51;6.45;;;0.98;;
57071;SDS011;42956;51.366;11.298;2022-07-06T11:59:22;4.45;;;0.75;;
57071;SDS011;42956;51.366;11.298;2022-07-06T12:01:57;3.33;;;0.83;;
57071;SDS011;42956;51.366;11.298;2022-07-06T12:04:25;7.03;;;0.80;;
57071;SDS011;42956;51.366;11.298;2022-07-06T12:06:53;2.15;;;0.90;;
57071;SDS011;42956;51.366;11.298;2022-07-06T12:09:23;4.53;;;0.63;;
57071;SDS011;42956;51.366;11.298;2022-07-06T12:11:51;2.53;;;0.80;;
57071;SDS011;42956;51.366;11.298;2022-07-06T12:14:20;3.75;;;0.73;;
57071;SDS011;42956;51.366;11.298;2022-07-06T12:16:49;1.23;;;0.50;;
57071;SDS011;42956;51.366;11.298;2022-07-06T12:19:17;2.67;;;0.80;;
57071;SDS011;42956;51.366;11.298;2022-07-06T12:21:46;2.03;;;0.60;;
57071;SDS011;42956;51.366;11.298;2022-07-06T12:24:17;4.00;;;0.73;;
57071;SDS011;42956;51.366;11.298;2022-07-06T12:26:47;2.28;;;0.70;;
57071;SDS011;42956;51.366;11.298;2022-07-06T12:29:16;2.60;;;0.80;;
57071;SDS011;42956;51.366;11.298;2022-07-06T12:31:47;2.72;;;0.88;;
57071;SDS011;42956;51.366;11.298;2022-07-06T12:34:16;3.10;;;0.80;;
57071;SDS011;42956;51.366;11.298;2022-07-06T12:36:45;1.63;;;0.85;;
57071;SDS011;42956;51.366;11.298;2022-07-06T12:39:14;0.93;;;0.60;;
57071;SDS011;42956;51.366;11.298;2022-07-06T12:41:46;2.70;;;1.02;;
57071;SDS011;42956;51.366;11.298;2022-07-06T12:44:17;6.75;;;0.98;;
57071;SDS011;42956;51.366;11.298;2022-07-06T12:46:46;1.55;;;0.45;;
57071;SDS011;42956;51.366;11.298;2022-07-06T12:49:18;2.08;;;0.82;;
57071;SDS011;42956;51.366;11.298;2022-07-06T12:51:50;2.10;;;0.50;;
57071;SDS011;42956;51.366;11.298;2022-07-06T12:54:18;2.10;;;0.40;;
57071;SDS011;42956;51.366;11.298;2022-07-06T12:57:06;2.38;;;1.05;;
57071;SDS011;42956;51.366;11.298;2022-07-06T12:59:37;1.55;;;0.75;;
57071;SDS011;42956;51.366;11.298;2022-07-06T13:02:06;3.13;;;0.95;;
57071;SDS011;42956;51.366;11.298;2022-07-06T13:04:36;2.60;;;1.10;;
57071;SDS011;42956;51.366;11.298;2022-07-06T13:07:04;2.83;;;0.60;;
57071;SDS011;42956;51.366;11.298;2022-07-06T13:09:36;1.08;;;0.63;;
57071;SDS011;42956;51.366;11.298;2022-07-06T13:12:04;4.38;;;0.90;;
57071;SDS011;42956;51.366;11.298;2022-07-06T13:14:32;4.32;;;0.70;;
57071;SDS011;42956;51.366;11.298;2022-07-06T13:17:01;1.85;;;0.80;;
57071;SDS011;42956;51.366;11.298;2022-07-06T13:19:30;3.17;;;1.02;;
57071;SDS011;42956;51.366;11.298;2022-07-06T13:21:58;2.10;;;0.90;;
57071;SDS011;42956;51.366;11.298;2022-07-06T13:24:26;1.98;;;0.70;;
57071;SDS011;42956;51.366;11.298;2022-07-06T13:26:54;5.63;;;0.85;;
57071;SDS011;42956;51.366;11.298;2022-07-06T13:29:22;2.30;;;0.70;;
57071;SDS011;42956;51.366;11.298;2022-07-06T13:31:51;2.90;;;0.65;;
57071;SDS011;42956;51.366;11.298;2022-07-06T13:34:20;2.05;;;0.60;;
57071;SDS011;42956;51.366;11.298;2022-07-06T13:36:48;1.45;;;0.50;;
57071;SDS011;42956;51.366;11.298;2022-07-06T13:39:16;2.47;;;0.73;;
57071;SDS011;42956;51.366;11.298;2022-07-06T13:41:44;2.25;;;0.80;;
57071;SDS011;42956;51.366;11.298;2022-07-06T13:44:12;5.72;;;0.70;;
57071;SDS011;42956;51.366;11.298;2022-07-06T13:46:41;1.70;;;0.70;;
57071;SDS011;42956;51.366;11.298;2022-07-06T13:49:09;3.30;;;0.70;;
57071;SDS011;42956;51.366;11.298;2022-07-06T13:51:39;2.05;;;0.75;;
57071;SDS011;42956;51.366;11.298;2022-07-06T13:54:06;2.88;;;0.93;;
57071;SDS011;42956;51.366;11.298;2022-07-06T13:56:36;2.55;;;0.70;;
57071;SDS011;42956;51.366;11.298;2022-07-06T13:59:04;2.97;;;1.63;;
57071;SDS011;42956;51.366;11.298;2022-07-06T14:01:32;2.20;;;0.80;;
57071;SDS011;42956;51.366;11.298;2022-07-06T14:04:01;3.20;;;1.15;;
57071;SDS011;42956;51.366;11.298;2022-07-06T14:06:28;3.88;;;0.88;;
57071;SDS011;42956;51.366;11.298;2022-07-06T14:08:58;1.90;;;0.60;;
57071;SDS011;42956;51.366;11.298;2022-07-06T14:11:26;2.05;;;0.85;;
57071;SDS011;42956;51.366;11.298;2022-07-06T14:13:53;3.92;;;0.55;;
57071;SDS011;42956;51.366;11.298;2022-07-06T14:16:22;1.60;;;0.80;;
57071;SDS011;42956;51.366;11.298;2022-07-06T14:18:50;3.17;;;0.60;;
57071;SDS011;42956;51.366;11.298;2022-07-06T14:21:18;2.03;;;0.60;;
57071;SDS011;42956;51.366;11.298;2022-07-06T14:23:46;5.43;;;0.45;;
57071;SDS011;42956;51.366;11.298;2022-07-06T14:26:16;1.77;;;0.55;;
57071;SDS011;42956;51.366;11.298;2022-07-06T14:28:44;4.75;;;0.50;;
57071;SDS011;42956;51.366;11.298;2022-07-06T14:31:12;1.77;;;0.65;;
57071;SDS011;42956;51.366;11.298;2022-07-06T14:33:47;1.83;;;0.60;;
57071;SDS011;42956;51.366;11.298;2022-07-06T14:36:15;2.20;;;0.65;;
57071;SDS011;42956;51.366;11.298;2022-07-06T14:38:43;2.28;;;0.47;;
57071;SDS011;42956;51.366;11.298;2022-07-06T14:41:11;1.48;;;0.50;;
57071;SDS011;42956;51.366;11.298;2022-07-06T14:43:40;2.08;;;0.60;;